Time;durP1;ratioP1;P1;durP2;ratioP2;P2;SDS_P1;SDS_P2;PMS_P1;PMS_P2;Temp;Humidity;BMP_temperature;BMP_pressure;BME280_temperature;BME280_humidity;BME280_pressure;Samples;Min_cycle;Max_cycle;Signal;HPM_P1;HPM_P2
2024/03/11 00:01:23;;;;;;;8.48;4.65;;;;;;;;;;6177380;23;20160;-88
2024/03/11 00:04:30;;;;;;;13.98;6.53;;;;;;;;;;6178204;23;20152;-89
2024/03/11 00:07:37;;;;;;;10.52;5.28;;;;;;;;;;6179390;23;20167;-89
2024/03/11 00:10:42;;;;;;;12.38;6.10;;;;;;;;;;6180448;23;20283;-89
2024/03/11 00:13:48;;;;;;;11.82;5.50;;;;;;;;;;6181766;23;20203;-90
2024/03/11 00:16:53;;;;;;;9.18;5.18;;;;;;;;;;6197889;23;20207;-90
2024/03/11 00:20:00;;;;;;;9.95;5.13;;;;;;;;;;6179423;23;20187;-90
2024/03/11 00:23:05;;;;;;;16.00;6.30;;;;;;;;;;6179558;23;20160;-91
2024/03/11 00:26:10;;;;;;;11.07;5.55;;;;;;;;;;6178404;23;20536;-89
2024/03/11 00:29:15;;;;;;;11.82;5.95;;;;;;;;;;6179045;23;20167;-89
2024/03/11 00:32:24;;;;;;;9.95;5.47;;;;;;;;;;6178852;23;20283;-90
2024/03/11 00:35:30;;;;;;;10.85;5.65;;;;;;;;;;6178937;23;20167;-89
2024/03/11 00:38:36;;;;;;;10.10;5.18;;;;;;;;;;6177767;23;20255;-89
2024/03/11 00:41:41;;;;;;;12.18;5.85;;;;;;;;;;6178614;23;20265;-89
2024/03/11 00:44:48;;;;;;;10.55;5.55;;;;;;;;;;6178858;23;20163;-89
2024/03/11 00:47:55;;;;;;;10.23;5.82;;;;;;;;;;6179034;23;20164;-90
2024/03/11 00:51:02;;;;;;;14.52;7.25;;;;;;;;;;6179437;23;20171;-91
2024/03/11 00:54:07;;;;;;;12.43;5.80;;;;;;;;;;6178257;23;20164;-89
2024/03/11 00:57:14;;;;;;;10.90;5.72;;;;;;;;;;6179208;23;20155;-89
2024/03/11 01:00:22;;;;;;;11.05;5.78;;;;;;;;;;6179108;23;20242;-89
2024/03/11 01:03:29;;;;;;;11.15;5.90;;;;;;;;;;6179002;23;20169;-90
2024/03/11 01:06:36;;;;;;;10.02;5.68;;;;;;;;;;6181566;23;20172;-89
2024/03/11 01:09:41;;;;;;;10.25;6.00;;;;;;;;;;6178626;23;20192;-89
2024/03/11 01:12:49;;;;;;;8.48;5.38;;;;;;;;;;6179026;23;20156;-90
2024/03/11 01:15:54;;;;;;;10.88;5.95;;;;;;;;;;6179734;23;20186;-90
2024/03/11 01:18:59;;;;;;;10.55;5.80;;;;;;;;;;6178174;23;20168;-90
2024/03/11 01:22:06;;;;;;;10.95;5.65;;;;;;;;;;6181112;23;20168;-90
2024/03/11 01:25:11;;;;;;;12.02;5.75;;;;;;;;;;6179368;23;20182;-90
2024/03/11 01:28:17;;;;;;;8.85;5.57;;;;;;;;;;6179756;23;20163;-90
2024/03/11 01:31:23;;;;;;;10.32;5.20;;;;;;;;;;6180420;23;20168;-89
2024/03/11 01:34:33;;;;;;;10.05;5.28;;;;;;;;;;6177573;23;20159;-89
2024/03/11 01:37:41;;;;;;;11.10;5.85;;;;;;;;;;6179042;23;20152;-89
2024/03/11 01:40:47;;;;;;;12.65;7.22;;;;;;;;;;6178623;23;20207;-88
2024/03/11 01:43:52;;;;;;;11.30;5.90;;;;;;;;;;6179728;23;20246;-90
2024/03/11 01:46:58;;;;;;;9.77;5.43;;;;;;;;;;6179218;23;20180;-89
2024/03/11 01:50:07;;;;;;;10.60;5.65;;;;;;;;;;6179117;23;20188;-89
2024/03/11 01:53:14;;;;;;;12.40;6.22;;;;;;;;;;6179461;23;20213;-89
2024/03/11 01:56:22;;;;;;;13.23;7.05;;;;;;;;;;6182500;23;20156;-89
2024/03/11 01:59:27;;;;;;;14.18;6.18;;;;;;;;;;6182311;23;20623;-90
2024/03/11 02:02:32;;;;;;;14.20;6.80;;;;;;;;;;6181578;23;20499;-89
2024/03/11 02:05:40;;;;;;;11.38;5.93;;;;;;;;;;6181827;23;20220;-90
2024/03/11 02:08:47;;;;;;;15.80;6.38;;;;;;;;;;6181863;23;20152;-88
2024/03/11 02:11:52;;;;;;;13.27;6.28;;;;;;;;;;6182014;23;20175;-89
2024/03/11 02:14:59;;;;;;;13.00;5.70;;;;;;;;;;6181112;23;20211;-90
2024/03/11 02:18:05;;;;;;;8.90;5.00;;;;;;;;;;6180974;23;20168;-89
2024/03/11 02:21:11;;;;;;;9.43;5.03;;;;;;;;;;6180996;23;20191;-89
2024/03/11 02:24:18;;;;;;;9.88;4.97;;;;;;;;;;6182297;23;20427;-89
2024/03/11 02:27:23;;;;;;;11.35;5.38;;;;;;;;;;6181575;23;20241;-89
2024/03/11 02:30:29;;;;;;;13.00;5.47;;;;;;;;;;6179989;23;20167;-89
2024/03/11 02:33:35;;;;;;;7.72;4.40;;;;;;;;;;6183444;23;20152;-88
2024/03/11 02:36:41;;;;;;;7.07;4.38;;;;;;;;;;6179707;23;20237;-89
2024/03/11 02:39:48;;;;;;;10.95;4.90;;;;;;;;;;6184359;23;20228;-89
2024/03/11 02:42:53;;;;;;;8.57;4.90;;;;;;;;;;6183029;23;20171;-89
2024/03/11 02:45:58;;;;;;;10.27;4.65;;;;;;;;;;6183329;23;20172;-89
2024/03/11 02:49:04;;;;;;;7.80;4.35;;;;;;;;;;6182810;23;20191;-88
2024/03/11 02:52:09;;;;;;;9.57;5.13;;;;;;;;;;6182917;23;20708;-89
2024/03/11 02:55:18;;;;;;;8.27;4.72;;;;;;;;;;6183665;23;20175;-89
2024/03/11 02:58:24;;;;;;;11.30;5.25;;;;;;;;;;6183755;23;20232;-89
2024/03/11 03:01:29;;;;;;;7.97;4.57;;;;;;;;;;6183310;23;20200;-89
2024/03/11 03:04:34;;;;;;;12.98;5.30;;;;;;;;;;6182491;23;20172;-88
2024/03/11 03:07:39;;;;;;;8.75;5.07;;;;;;;;;;6183100;23;20200;-90
2024/03/11 03:10:51;;;;;;;6.93;4.10;;;;;;;;;;6181510;23;20164;-89
2024/03/11 03:13:56;;;;;;;7.28;4.40;;;;;;;;;;6200184;23;20164;-88
2024/03/11 03:17:01;;;;;;;8.25;4.85;;;;;;;;;;6182719;23;20615;-89
2024/03/11 03:20:09;;;;;;;8.52;4.60;;;;;;;;;;6181443;23;20553;-89
2024/03/11 03:23:15;;;;;;;7.00;4.63;;;;;;;;;;6183336;23;20175;-89
2024/03/11 03:26:21;;;;;;;8.18;4.57;;;;;;;;;;6181726;23;20227;-90
2024/03/11 03:29:27;;;;;;;7.25;4.28;;;;;;;;;;6182476;23;20152;-89
2024/03/11 03:32:33;;;;;;;7.07;4.68;;;;;;;;;;6184228;23;20167;-88
2024/03/11 03:35:38;;;;;;;10.02;4.70;;;;;;;;;;6182169;23;20163;-89
2024/03/11 03:38:43;;;;;;;7.65;4.25;;;;;;;;;;6180932;23;20168;-88
2024/03/11 03:41:50;;;;;;;7.72;4.53;;;;;;;;;;6180411;23;20270;-88
2024/03/11 03:44:55;;;;;;;6.70;4.00;;;;;;;;;;6181450;23;20187;-87
2024/03/11 03:48:01;;;;;;;8.85;4.63;;;;;;;;;;6182094;23;20492;-90
2024/03/11 03:51:06;;;;;;;7.88;4.25;;;;;;;;;;6181492;23;20187;-89
2024/03/11 03:54:11;;;;;;;5.90;3.88;;;;;;;;;;6181500;23;20576;-89
2024/03/11 03:57:18;;;;;;;7.22;4.13;;;;;;;;;;6182929;23;20167;-89
2024/03/11 04:00:23;;;;;;;7.13;4.25;;;;;;;;;;6181860;23;20191;-88
2024/03/11 04:03:29;;;;;;;7.22;3.75;;;;;;;;;;6181220;23;20167;-87
2024/03/11 04:06:34;;;;;;;5.90;3.88;;;;;;;;;;6182287;23;20163;-89
2024/03/11 04:09:39;;;;;;;7.85;4.25;;;;;;;;;;6180502;23;20172;-89
2024/03/11 04:12:47;;;;;;;6.30;4.20;;;;;;;;;;6180264;23;20168;-90
2024/03/11 04:15:52;;;;;;;7.88;4.05;;;;;;;;;;6180552;23;20196;-90
2024/03/11 04:18:58;;;;;;;7.70;4.40;;;;;;;;;;6180358;23;20187;-88
2024/03/11 04:22:04;;;;;;;8.32;4.75;;;;;;;;;;6181200;23;20199;-89
2024/03/11 04:25:11;;;;;;;8.98;4.75;;;;;;;;;;6180872;23;20199;-88
2024/03/11 04:28:18;;;;;;;10.43;5.07;;;;;;;;;;6182996;23;20168;-88
2024/03/11 04:31:24;;;;;;;7.27;4.33;;;;;;;;;;6181109;23;20280;-89
2024/03/11 04:34:29;;;;;;;9.00;4.57;;;;;;;;;;6199460;23;20168;-89
2024/03/11 04:37:35;;;;;;;6.75;4.30;;;;;;;;;;6182042;23;20219;-90
2024/03/11 04:40:40;;;;;;;7.45;4.00;;;;;;;;;;6182454;23;20195;-88
2024/03/11 04:43:47;;;;;;;18.27;6.47;;;;;;;;;;6181146;23;20279;-88
2024/03/11 04:46:55;;;;;;;9.80;5.03;;;;;;;;;;6180306;23;20163;-88
2024/03/11 04:50:01;;;;;;;11.67;4.90;;;;;;;;;;6180564;23;20200;-90
2024/03/11 04:53:07;;;;;;;8.03;4.60;;;;;;;;;;6182426;23;20316;-89
2024/03/11 04:56:12;;;;;;;6.57;4.23;;;;;;;;;;6182139;23;20217;-90
2024/03/11 04:59:19;;;;;;;8.67;4.80;;;;;;;;;;6181272;23;20155;-88
2024/03/11 05:02:24;;;;;;;10.37;4.50;;;;;;;;;;6181714;23;20151;-90
2024/03/11 05:05:31;;;;;;;11.60;4.33;;;;;;;;;;6183384;23;20204;-89
2024/03/11 05:08:37;;;;;;;7.30;4.20;;;;;;;;;;6182784;23;20167;-90
2024/03/11 05:11:42;;;;;;;7.70;4.70;;;;;;;;;;6183450;23;20499;-90
2024/03/11 05:14:52;;;;;;;7.23;4.10;;;;;;;;;;6182004;23;20191;-90
2024/03/11 05:17:57;;;;;;;10.57;4.20;;;;;;;;;;6181829;23;20221;-90
2024/03/11 05:21:02;;;;;;;8.37;4.50;;;;;;;;;;6183671;23;20245;-90
2024/03/11 05:24:08;;;;;;;8.10;4.67;;;;;;;;;;6184291;23;20212;-88
2024/03/11 05:27:13;;;;;;;10.60;5.13;;;;;;;;;;6184286;23;20244;-89
2024/03/11 05:30:21;;;;;;;10.93;5.00;;;;;;;;;;6184711;23;20231;-91
2024/03/11 05:33:29;;;;;;;14.10;6.03;;;;;;;;;;6185970;23;20200;-89
2024/03/11 13:14:19;;;;;;;1.55;0.90;;;;;;;;;;6158817;23;20212;-89
2024/03/11 13:17:24;;;;;;;0.80;0.80;;;;;;;;;;6177901;23;20168;-89
2024/03/11 13:20:38;;;;;;;3.30;1.25;;;;;;;;;;6177360;23;20167;-90
2024/03/11 13:23:44;;;;;;;3.22;1.10;;;;;;;;;;6177685;23;20253;-88
2024/03/11 13:26:49;;;;;;;4.32;1.10;;;;;;;;;;6177295;23;20164;-90
2024/03/11 13:29:55;;;;;;;1.35;1.00;;;;;;;;;;6176150;23;20175;-90
2024/03/11 13:33:00;;;;;;;1.70;1.02;;;;;;;;;;6176566;23;20167;-90
2024/03/11 13:36:05;;;;;;;1.90;1.08;;;;;;;;;;6179199;23;20245;-90
2024/03/11 13:39:16;;;;;;;1.63;0.95;;;;;;;;;;6177331;23;20183;-89
2024/03/11 13:42:23;;;;;;;1.35;0.98;;;;;;;;;;6183597;23;20220;-91
2024/03/11 13:45:30;;;;;;;1.40;1.00;;;;;;;;;;6179275;23;20195;-90
2024/03/11 13:48:37;;;;;;;2.22;1.33;;;;;;;;;;6177688;23;20167;-90
2024/03/11 13:51:43;;;;;;;5.97;2.40;;;;;;;;;;6182987;23;20636;-90
2024/03/11 13:54:48;;;;;;;4.68;1.58;;;;;;;;;;6184736;23;20243;-91
2024/03/11 13:57:54;;;;;;;4.10;1.15;;;;;;;;;;6180779;23;20172;-90
2024/03/11 14:01:00;;;;;;;3.13;1.20;;;;;;;;;;6180994;23;20651;-90
2024/03/11 14:04:07;;;;;;;2.17;0.90;;;;;;;;;;6182722;23;20152;-90
2024/03/11 14:07:13;;;;;;;2.53;0.88;;;;;;;;;;6182802;23;20188;-90
2024/03/11 14:10:21;;;;;;;1.50;1.05;;;;;;;;;;6184363;23;20168;-90
2024/03/11 14:13:26;;;;;;;7.32;1.58;;;;;;;;;;6184781;23;20215;-90
2024/03/11 14:16:32;;;;;;;2.33;1.38;;;;;;;;;;6183282;23;20235;-91
2024/03/11 14:19:37;;;;;;;3.95;1.30;;;;;;;;;;6182219;23;20167;-89
2024/03/11 14:22:44;;;;;;;2.35;1.38;;;;;;;;;;6178328;23;20199;-90
2024/03/11 14:25:51;;;;;;;5.50;1.70;;;;;;;;;;6184062;23;20203;-89
2024/03/11 14:28:58;;;;;;;4.28;2.40;;;;;;;;;;6179486;23;20635;-91
2024/03/11 14:32:10;;;;;;;2.88;1.70;;;;;;;;;;6180271;23;20241;-90
2024/03/11 14:35:15;;;;;;;6.03;1.20;;;;;;;;;;6200988;23;20172;-89
2024/03/11 14:38:22;;;;;;;2.90;1.10;;;;;;;;;;6186169;23;20173;-91
2024/03/11 14:41:32;;;;;;;4.72;1.67;;;;;;;;;;6182525;23;20622;-90
2024/03/11 14:44:38;;;;;;;3.00;1.45;;;;;;;;;;6179764;23;20195;-91
2024/03/11 14:47:45;;;;;;;2.15;1.42;;;;;;;;;;6182713;23;20236;-91
2024/03/11 14:50:50;;;;;;;2.95;1.60;;;;;;;;;;6182683;23;20167;-90
2024/03/11 14:53:56;;;;;;;3.53;1.35;;;;;;;;;;6180369;23;20164;-90
2024/03/11 14:57:01;;;;;;;2.95;1.40;;;;;;;;;;6180261;23;20207;-91
2024/03/11 15:00:13;;;;;;;4.15;1.40;;;;;;;;;;6179592;23;20232;-91
2024/03/11 15:03:23;;;;;;;8.63;2.95;;;;;;;;;;6179811;23;20180;-93
2024/03/11 15:06:31;;;;;;;3.95;1.50;;;;;;;;;;6181705;23;20172;-92
2024/03/11 15:09:42;;;;;;;7.40;1.00;;;;;;;;;;6182787;23;20536;-91
2024/03/11 15:12:51;;;;;;;1.95;1.25;;;;;;;;;;6180360;23;20287;-91
2024/03/11 15:15:57;;;;;;;2.13;1.10;;;;;;;;;;6180428;23;20168;-90
2024/03/11 15:19:04;;;;;;;1.65;1.05;;;;;;;;;;6178641;23;20251;-91
2024/03/11 15:22:09;;;;;;;3.47;1.27;;;;;;;;;;6179325;23;20211;-91
2024/03/11 15:25:16;;;;;;;4.05;1.38;;;;;;;;;;6179654;23;20492;-90
2024/03/11 15:28:21;;;;;;;2.15;1.20;;;;;;;;;;6181130;23;20176;-90
2024/03/11 15:31:28;;;;;;;2.40;1.10;;;;;;;;;;6182520;23;20176;-90
2024/03/11 15:34:41;;;;;;;2.65;1.35;;;;;;;;;;6183002;23;20256;-90
2024/03/11 15:37:46;;;;;;;4.10;1.60;;;;;;;;;;6183305;23;20168;-91
2024/03/11 15:40:57;;;;;;;2.65;1.40;;;;;;;;;;6184287;23;20178;-90
2024/03/11 15:44:04;;;;;;;2.38;1.20;;;;;;;;;;6183173;23;20239;-89
2024/03/11 15:47:10;;;;;;;3.25;1.10;;;;;;;;;;6180299;23;20168;-91
2024/03/11 15:50:20;;;;;;;4.90;1.13;;;;;;;;;;6179655;23;20258;-90
2024/03/11 15:53:28;;;;;;;2.38;1.40;;;;;;;;;;6178248;23;20168;-91
2024/03/11 15:56:34;;;;;;;3.35;1.70;;;;;;;;;;6181189;23;20176;-91
2024/03/11 15:59:43;;;;;;;2.45;1.40;;;;;;;;;;6178983;23;20195;-90
2024/03/11 16:02:48;;;;;;;4.07;1.50;;;;;;;;;;6179309;23;20275;-90
2024/03/11 16:05:58;;;;;;;1.50;1.17;;;;;;;;;;6178542;23;20168;-89
2024/03/11 16:09:10;;;;;;;5.32;1.33;;;;;;;;;;6178111;23;20176;-89
2024/03/11 16:12:16;;;;;;;3.25;1.17;;;;;;;;;;6177280;23;20172;-90
2024/03/11 16:15:22;;;;;;;2.22;1.38;;;;;;;;;;6176896;23;20303;-89
2024/03/11 16:18:27;;;;;;;7.03;1.42;;;;;;;;;;6176718;23;20179;-89
2024/03/11 16:21:36;;;;;;;3.80;1.35;;;;;;;;;;6175261;23;20195;-89
2024/03/11 16:24:41;;;;;;;4.55;1.60;;;;;;;;;;6179945;23;20150;-89
2024/03/11 16:27:46;;;;;;;2.67;1.50;;;;;;;;;;6175851;23;20168;-89
2024/03/11 16:30:52;;;;;;;3.33;1.65;;;;;;;;;;6181934;23;20172;-85
2024/03/11 16:33:56;;;;;;;6.43;2.60;;;;;;;;;;6181016;23;20167;-87
2024/03/11 16:37:04;;;;;;;2.97;1.50;;;;;;;;;;6178618;23;20192;-89
2024/03/11 16:40:11;;;;;;;4.25;1.75;;;;;;;;;;6176851;23;20163;-89
2024/03/11 16:43:16;;;;;;;5.30;2.40;;;;;;;;;;6179970;23;20666;-87
2024/03/11 16:46:22;;;;;;;4.70;1.80;;;;;;;;;;6175711;23;20175;-88
2024/03/11 16:49:27;;;;;;;3.85;1.30;;;;;;;;;;6178501;23;20219;-91
2024/03/11 16:52:33;;;;;;;4.30;2.25;;;;;;;;;;6180805;23;20165;-87
2024/03/11 16:55:40;;;;;;;4.65;2.40;;;;;;;;;;6178497;23;20235;-88
2024/03/11 16:58:48;;;;;;;3.95;2.22;;;;;;;;;;6179172;23;20176;-88
2024/03/11 17:01:56;;;;;;;4.53;1.80;;;;;;;;;;6180542;23;20266;-89
2024/03/11 17:05:06;;;;;;;7.45;3.75;;;;;;;;;;6178407;23;20168;-90
2024/03/11 17:08:14;;;;;;;5.75;2.10;;;;;;;;;;6180078;23;20171;-90
2024/03/11 17:11:19;;;;;;;3.03;1.67;;;;;;;;;;6178413;23;20187;-86
2024/03/11 17:14:26;;;;;;;4.15;1.80;;;;;;;;;;6179329;23;20199;-88
2024/03/11 17:17:31;;;;;;;4.60;1.80;;;;;;;;;;6178098;23;20171;-87
2024/03/11 17:20:37;;;;;;;7.22;3.30;;;;;;;;;;6178083;23;20195;-87
2024/03/11 17:23:43;;;;;;;14.75;4.15;;;;;;;;;;6178805;23;20195;-85
2024/03/11 17:26:48;;;;;;;15.45;4.85;;;;;;;;;;6182569;23;20172;-88
2024/03/11 17:29:54;;;;;;;24.75;6.85;;;;;;;;;;6181678;23;20171;-88
2024/03/11 17:33:07;;;;;;;7.18;3.65;;;;;;;;;;6182350;23;20172;-88
2024/03/11 17:36:13;;;;;;;13.30;4.25;;;;;;;;;;6180505;23;20217;-89
2024/03/11 17:39:20;;;;;;;23.77;9.18;;;;;;;;;;6181097;23;20235;-90
2024/03/11 17:42:26;;;;;;;27.67;9.77;;;;;;;;;;6181984;23;20199;-89
2024/03/11 17:45:37;;;;;;;18.67;6.95;;;;;;;;;;6183527;23;20500;-90
2024/03/11 18:29:42;;;;;;;8.40;4.47;;;;;;;;;;6174236;23;20200;-89
2024/03/11 18:32:50;;;;;;;10.55;4.82;;;;;;;;;;6177721;23;20193;-88
2024/03/11 18:35:58;;;;;;;9.13;4.63;;;;;;;;;;6181767;23;20172;-87
2024/03/11 18:39:05;;;;;;;11.30;5.57;;;;;;;;;;6190640;23;20168;-89
2024/03/11 18:42:11;;;;;;;12.88;4.93;;;;;;;;;;6186102;23;20230;-89
2024/03/11 18:45:17;;;;;;;9.52;4.45;;;;;;;;;;6180916;23;20171;-89
2024/03/11 18:48:22;;;;;;;10.45;4.78;;;;;;;;;;6181281;23;20168;-90
2024/03/11 18:51:32;;;;;;;11.75;5.40;;;;;;;;;;6183103;23;20171;-88
2024/03/11 18:54:37;;;;;;;11.90;5.28;;;;;;;;;;6179438;23;20786;-88
2024/03/11 18:57:43;;;;;;;13.50;4.63;;;;;;;;;;6180122;23;20168;-90
2024/03/11 19:00:49;;;;;;;13.45;3.47;;;;;;;;;;6179129;23;20168;-89
2024/03/11 19:03:54;;;;;;;10.48;4.25;;;;;;;;;;6177711;23;20278;-90
2024/03/11 19:07:00;;;;;;;8.25;3.88;;;;;;;;;;6178343;23;20171;-89
2024/03/11 19:10:10;;;;;;;6.95;3.72;;;;;;;;;;6194562;23;20251;-89
2024/03/11 19:13:16;;;;;;;9.48;4.18;;;;;;;;;;6180159;23;20243;-88
2024/03/11 19:16:23;;;;;;;9.35;4.40;;;;;;;;;;6181137;23;20671;-89
2024/03/11 19:19:30;;;;;;;8.10;4.47;;;;;;;;;;6179959;23;20172;-91
2024/03/11 19:22:36;;;;;;;11.52;4.20;;;;;;;;;;6181479;23;20191;-87
2024/03/11 19:25:43;;;;;;;11.25;5.25;;;;;;;;;;6182024;23;20163;-88
2024/03/11 19:28:50;;;;;;;14.27;5.50;;;;;;;;;;6179008;23;20191;-88
2024/03/11 19:31:57;;;;;;;10.60;4.35;;;;;;;;;;6178877;23;20172;-90
2024/03/11 19:35:02;;;;;;;9.40;4.43;;;;;;;;;;6178109;23;20171;-88
2024/03/11 19:38:37;;;;;;;12.30;5.60;;;;;;;;;;6179045;23;20210;-90
2024/03/11 19:41:48;;;;;;;16.60;5.53;;;;;;;;;;6180863;23;20266;-89
2024/03/11 19:44:59;;;;;;;14.18;5.22;;;;;;;;;;6180377;23;20171;-89
2024/03/11 19:48:35;;;;;;;12.13;5.18;;;;;;;;;;6180957;23;20258;-89
2024/03/11 19:52:16;;;;;;;11.88;4.80;;;;;;;;;;6179218;23;20264;-88
2024/03/11 19:55:41;;;;;;;11.52;5.22;;;;;;;;;;6182205;23;20168;-88
2024/03/11 19:59:20;;;;;;;15.07;6.15;;;;;;;;;;6180649;23;20172;-90
2024/03/11 20:02:38;;;;;;;14.27;6.18;;;;;;;;;;6180929;23;20196;-90
2024/03/11 20:06:02;;;;;;;14.50;7.22;;;;;;;;;;6180990;23;20550;-90
2024/03/11 20:09:34;;;;;;;13.15;6.65;;;;;;;;;;6178453;23;20245;-89
2024/03/11 20:12:52;;;;;;;22.40;7.88;;;;;;;;;;6177104;23;20186;-90
2024/03/11 20:16:36;;;;;;;17.17;7.15;;;;;;;;;;6176019;23;20175;-89
2024/03/11 20:20:12;;;;;;;16.70;6.57;;;;;;;;;;6178092;23;20167;-88
2024/03/11 20:23:41;;;;;;;11.95;5.93;;;;;;;;;;6180147;23;20199;-88
2024/03/11 20:26:57;;;;;;;15.00;6.47;;;;;;;;;;6179626;23;20268;-89
2024/03/11 20:30:06;;;;;;;17.55;7.82;;;;;;;;;;6177711;23;20200;-89
2024/03/11 20:33:12;;;;;;;12.50;6.40;;;;;;;;;;6179254;23;20155;-89
2024/03/11 20:36:20;;;;;;;12.07;5.45;;;;;;;;;;6182449;23;20280;-90
2024/03/11 20:39:27;;;;;;;9.55;4.65;;;;;;;;;;6181625;23;20164;-88
2024/03/11 20:42:34;;;;;;;14.32;5.30;;;;;;;;;;6183115;23;20183;-88
2024/03/11 20:45:40;;;;;;;10.88;4.50;;;;;;;;;;6179609;23;20172;-89
2024/03/11 20:48:47;;;;;;;10.48;4.28;;;;;;;;;;6196510;23;20167;-87
2024/03/11 20:51:53;;;;;;;7.78;3.85;;;;;;;;;;6178634;23;20168;-89
2024/03/11 20:54:58;;;;;;;10.02;4.13;;;;;;;;;;6176760;23;20168;-89
2024/03/11 20:58:05;;;;;;;12.13;4.90;;;;;;;;;;6196014;23;20168;-88
2024/03/11 21:01:10;;;;;;;11.38;4.43;;;;;;;;;;6177622;23;20168;-87
2024/03/11 21:04:15;;;;;;;9.73;4.63;;;;;;;;;;6178072;23;20179;-88
2024/03/11 21:07:20;;;;;;;8.85;4.18;;;;;;;;;;6177504;23;20615;-88
2024/03/11 21:10:27;;;;;;;10.63;4.30;;;;;;;;;;6183010;23;20179;-88
2024/03/11 21:13:34;;;;;;;9.40;4.00;;;;;;;;;;6181525;23;20167;-88
2024/03/11 21:16:40;;;;;;;8.10;3.92;;;;;;;;;;6177950;23;20171;-88
2024/03/11 21:19:52;;;;;;;15.05;4.78;;;;;;;;;;6176705;23;20243;-87
2024/03/11 21:23:01;;;;;;;13.63;4.40;;;;;;;;;;6176293;23;20524;-87
2024/03/11 21:26:17;;;;;;;9.52;3.92;;;;;;;;;;6185023;23;20163;-87
2024/03/11 21:29:24;;;;;;;54.67;11.27;;;;;;;;;;6178518;23;20247;-87
2024/03/11 21:32:34;;;;;;;20.80;5.47;;;;;;;;;;6197534;23;20223;-89
2024/03/11 21:35:39;;;;;;;14.68;4.43;;;;;;;;;;6196687;23;20172;-89
2024/03/11 21:38:45;;;;;;;8.82;4.63;;;;;;;;;;6177906;23;20187;-89
2024/03/11 21:41:50;;;;;;;9.80;4.43;;;;;;;;;;6176597;23;20163;-89
2024/03/11 21:44:57;;;;;;;14.63;5.32;;;;;;;;;;6176662;23;20167;-90
2024/03/11 21:48:02;;;;;;;24.55;5.78;;;;;;;;;;6195770;23;20215;-86
2024/03/11 21:51:08;;;;;;;14.25;4.70;;;;;;;;;;6176076;23;20171;-87
2024/03/11 21:54:13;;;;;;;10.50;3.95;;;;;;;;;;6178325;23;20307;-88
2024/03/11 21:57:20;;;;;;;13.02;4.63;;;;;;;;;;6175871;23;20172;-88
2024/03/11 22:00:26;;;;;;;11.27;4.85;;;;;;;;;;6178254;23;20172;-88
2024/03/11 22:03:32;;;;;;;9.18;4.40;;;;;;;;;;6177421;23;20270;-87
2024/03/11 22:06:37;;;;;;;10.10;4.80;;;;;;;;;;6175983;23;20830;-87
2024/03/11 22:09:42;;;;;;;10.73;5.25;;;;;;;;;;6177332;23;20168;-87
2024/03/11 22:12:47;;;;;;;11.02;5.47;;;;;;;;;;6179987;23;20211;-87
2024/03/11 22:15:53;;;;;;;8.27;4.90;;;;;;;;;;6197151;23;20167;-88
2024/03/11 22:18:58;;;;;;;14.02;4.95;;;;;;;;;;6176377;23;20235;-90
2024/03/11 22:22:03;;;;;;;13.38;5.28;;;;;;;;;;6176259;23;20175;-88
2024/03/11 22:25:09;;;;;;;9.77;4.47;;;;;;;;;;6175425;23;20172;-89
2024/03/11 22:28:16;;;;;;;7.40;4.20;;;;;;;;;;6174826;23;21029;-89
2024/03/11 22:31:24;;;;;;;10.35;5.22;;;;;;;;;;6175351;23;20172;-88
2024/03/11 22:34:29;;;;;;;9.25;4.35;;;;;;;;;;6176865;23;20664;-88
2024/03/11 22:37:34;;;;;;;9.57;4.47;;;;;;;;;;6179561;23;20163;-89
2024/03/11 22:40:41;;;;;;;11.07;4.50;;;;;;;;;;6179391;23;20280;-90
2024/03/11 22:43:47;;;;;;;12.30;5.38;;;;;;;;;;6179857;23;20175;-88
2024/03/11 22:46:55;;;;;;;16.50;7.35;;;;;;;;;;6181017;23;20614;-89
2024/03/11 22:50:00;;;;;;;14.63;5.65;;;;;;;;;;6196349;23;20168;-88
2024/03/11 22:53:06;;;;;;;11.15;5.78;;;;;;;;;;6179165;23;20179;-89
2024/03/11 22:56:11;;;;;;;14.80;6.22;;;;;;;;;;6178739;23;20627;-87
2024/03/11 22:59:18;;;;;;;10.50;4.50;;;;;;;;;;6180153;23;20666;-89
2024/03/11 23:02:27;;;;;;;8.80;4.07;;;;;;;;;;6179682;23;20168;-88
2024/03/11 23:05:32;;;;;;;8.55;4.10;;;;;;;;;;6179028;23;20164;-88
2024/03/11 23:08:38;;;;;;;7.72;4.35;;;;;;;;;;6178712;23;20150;-91
2024/03/11 23:11:44;;;;;;;7.28;4.07;;;;;;;;;;6179338;23;20168;-88
2024/03/11 23:14:49;;;;;;;7.55;3.78;;;;;;;;;;6197237;23;20164;-87
2024/03/11 23:17:55;;;;;;;12.00;4.68;;;;;;;;;;6176001;23;20159;-89
2024/03/11 23:21:00;;;;;;;9.15;4.47;;;;;;;;;;6177603;23;20211;-89
2024/03/11 23:24:06;;;;;;;9.00;4.18;;;;;;;;;;6175825;23;20350;-88
2024/03/11 23:27:11;;;;;;;13.55;4.15;;;;;;;;;;6177063;23;20240;-89
2024/03/11 23:30:16;;;;;;;9.10;4.55;;;;;;;;;;6178052;23;20246;-88
2024/03/11 23:33:23;;;;;;;8.43;4.30;;;;;;;;;;6178287;23;20703;-89
2024/03/11 23:36:28;;;;;;;8.48;4.13;;;;;;;;;;6179002;23;20164;-88
2024/03/11 23:39:33;;;;;;;8.80;4.40;;;;;;;;;;6178805;23;20167;-89
2024/03/11 23:42:39;;;;;;;8.98;4.95;;;;;;;;;;6178254;23;20168;-88
2024/03/11 23:45:47;;;;;;;7.15;4.07;;;;;;;;;;6177760;23;20175;-88
2024/03/11 23:48:56;;;;;;;7.53;4.43;;;;;;;;;;6178415;23;20152;-88
2024/03/11 23:52:01;;;;;;;12.07;4.60;;;;;;;;;;6177421;23;20218;-89
2024/03/11 23:55:10;;;;;;;9.15;4.32;;;;;;;;;;6177546;23;20607;-89
2024/03/11 23:58:15;;;;;;;8.10;3.95;;;;;;;;;;6177078;23;20175;-89
